sensor_id;sensor_type;location;lat;lon;timestamp;pressure;altitude;pressure_sealevel;temperature;humidity
84374;BME280;74563;52.206;14.630;2024-01-10T00:01:03;103351.91;;;-6.94;66.25
84374;BME280;74563;52.206;14.630;2024-01-10T00:03:28;103348.13;;;-7.23;67.86
84374;BME280;74563;52.206;14.630;2024-01-10T00:05:53;103336.38;;;-6.94;66.67
84374;BME280;74563;52.206;14.630;2024-01-10T00:08:19;103335.59;;;-7.67;69.44
84374;BME280;74563;52.206;14.630;2024-01-10T00:10:44;103327.44;;;-6.30;64.43
84374;BME280;74563;52.206;14.630;2024-01-10T00:13:09;103336.31;;;-5.88;62.48
84374;BME280;74563;52.206;14.630;2024-01-10T00:15:34;103326.09;;;-5.40;60.01
84374;BME280;74563;52.206;14.630;2024-01-10T00:18:00;103324.97;;;-6.12;61.09
84374;BME280;74563;52.206;14.630;2024-01-10T00:20:25;103330.91;;;-7.24;66.48
84374;BME280;74563;52.206;14.630;2024-01-10T00:22:50;103325.03;;;-7.08;67.89
84374;BME280;74563;52.206;14.630;2024-01-10T00:25:15;103326.88;;;-5.64;62.02
84374;BME280;74563;52.206;14.630;2024-01-10T00:27:41;103296.75;;;-5.19;59.42
84374;BME280;74563;52.206;14.630;2024-01-10T00:30:06;103329.41;;;-5.80;60.77
84374;BME280;74563;52.206;14.630;2024-01-10T00:32:32;103323.50;;;-6.88;66.11
84374;BME280;74563;52.206;14.630;2024-01-10T00:34:57;103325.25;;;-5.36;61.13
84374;BME280;74563;52.206;14.630;2024-01-10T00:37:22;103323.59;;;-5.02;58.88
84374;BME280;74563;52.206;14.630;2024-01-10T00:39:47;103329.66;;;-5.08;58.66
84374;BME280;74563;52.206;14.630;2024-01-10T00:42:13;103332.75;;;-6.04;63.20
84374;BME280;74563;52.206;14.630;2024-01-10T00:44:38;103327.31;;;-7.38;67.98
84374;BME280;74563;52.206;14.630;2024-01-10T00:47:04;103317.72;;;-7.47;68.34
84374;BME280;74563;52.206;14.630;2024-01-10T00:49:29;103323.56;;;-7.62;69.90
84374;BME280;74563;52.206;14.630;2024-01-10T00:51:55;103311.66;;;-7.52;67.75
84374;BME280;74563;52.206;14.630;2024-01-10T00:54:20;103311.34;;;-7.75;67.72
84374;BME280;74563;52.206;14.630;2024-01-10T00:56:45;103308.41;;;-7.34;67.22
84374;BME280;74563;52.206;14.630;2024-01-10T00:59:11;103309.31;;;-7.28;66.73
84374;BME280;74563;52.206;14.630;2024-01-10T01:01:36;103309.81;;;-7.61;67.38
84374;BME280;74563;52.206;14.630;2024-01-10T01:04:01;103298.53;;;-6.83;64.99
84374;BME280;74563;52.206;14.630;2024-01-10T01:06:27;103309.81;;;-6.73;63.40
84374;BME280;74563;52.206;14.630;2024-01-10T01:08:52;103334.28;;;-7.99;67.38
84374;BME280;74563;52.206;14.630;2024-01-10T01:11:17;103330.69;;;-8.12;68.37
84374;BME280;74563;52.206;14.630;2024-01-10T01:13:43;103329.88;;;-8.07;68.29
84374;BME280;74563;52.206;14.630;2024-01-10T01:16:08;103325.78;;;-7.93;68.40
84374;BME280;74563;52.206;14.630;2024-01-10T01:18:34;103325.22;;;-8.34;70.73
84374;BME280;74563;52.206;14.630;2024-01-10T01:20:59;103325.09;;;-8.43;70.24
84374;BME280;74563;52.206;14.630;2024-01-10T01:23:25;103331.06;;;-8.44;70.20
84374;BME280;74563;52.206;14.630;2024-01-10T01:25:50;103321.78;;;-8.33;70.29
84374;BME280;74563;52.206;14.630;2024-01-10T01:28:16;103321.03;;;-8.23;68.61
84374;BME280;74563;52.206;14.630;2024-01-10T01:30:41;103317.59;;;-8.25;68.59
84374;BME280;74563;52.206;14.630;2024-01-10T01:33:06;103325.66;;;-8.59;70.73
84374;BME280;74563;52.206;14.630;2024-01-10T01:35:31;103323.84;;;-8.06;68.61
84374;BME280;74563;52.206;14.630;2024-01-10T01:37:57;103306.09;;;-8.45;69.58
84374;BME280;74563;52.206;14.630;2024-01-10T01:40:22;103302.47;;;-8.58;71.13
84374;BME280;74563;52.206;14.630;2024-01-10T01:42:47;103298.19;;;-8.57;69.90
84374;BME280;74563;52.206;14.630;2024-01-10T01:45:13;103299.97;;;-7.89;67.41
84374;BME280;74563;52.206;14.630;2024-01-10T01:47:39;103307.88;;;-7.80;65.51
84374;BME280;74563;52.206;14.630;2024-01-10T01:50:06;103292.00;;;-8.70;69.61
84374;BME280;74563;52.206;14.630;2024-01-10T01:52:32;103286.13;;;-8.58;69.27
84374;BME280;74563;52.206;14.630;2024-01-10T01:54:59;103288.09;;;-7.76;66.59
84374;BME280;74563;52.206;14.630;2024-01-10T01:57:25;103297.19;;;-8.05;67.01
84374;BME280;74563;52.206;14.630;2024-01-10T01:59:50;103302.88;;;-8.31;67.54
84374;BME280;74563;52.206;14.630;2024-01-10T02:02:16;103292.84;;;-7.36;64.26
84374;BME280;74563;52.206;14.630;2024-01-10T02:04:42;103283.78;;;-6.96;62.00
84374;BME280;74563;52.206;14.630;2024-01-10T02:07:07;103296.66;;;-8.45;66.18
84374;BME280;74563;52.206;14.630;2024-01-10T02:09:32;103293.13;;;-8.51;67.37
84374;BME280;74563;52.206;14.630;2024-01-10T02:11:58;103276.09;;;-8.40;66.98
84374;BME280;74563;52.206;14.630;2024-01-10T02:14:23;103281.75;;;-8.64;68.83
84374;BME280;74563;52.206;14.630;2024-01-10T02:16:49;103283.91;;;-8.36;68.70
84374;BME280;74563;52.206;14.630;2024-01-10T02:19:18;103283.16;;;-6.63;61.77
84374;BME280;74563;52.206;14.630;2024-01-10T02:21:44;103284.66;;;-6.91;60.90
84374;BME280;74563;52.206;14.630;2024-01-10T02:24:09;103294.22;;;-8.36;67.76
84374;BME280;74563;52.206;14.630;2024-01-10T02:26:34;103304.94;;;-8.66;69.91
84374;BME280;74563;52.206;14.630;2024-01-10T02:29:00;103298.41;;;-7.79;65.88
84374;BME280;74563;52.206;14.630;2024-01-10T02:31:25;103296.94;;;-7.54;63.80
84374;BME280;74563;52.206;14.630;2024-01-10T02:33:52;103309.03;;;-8.21;66.44
84374;BME280;74563;52.206;14.630;2024-01-10T02:36:17;103279.81;;;-7.46;63.73
84374;BME280;74563;52.206;14.630;2024-01-10T02:38:42;103276.44;;;-6.40;59.32
84374;BME280;74563;52.206;14.630;2024-01-10T02:41:08;103274.78;;;-7.34;61.68
84374;BME280;74563;52.206;14.630;2024-01-10T02:43:33;103286.75;;;-8.13;67.10
84374;BME280;74563;52.206;14.630;2024-01-10T02:45:58;103269.53;;;-8.14;66.75
84374;BME280;74563;52.206;14.630;2024-01-10T02:48:24;103272.59;;;-7.75;65.66
84374;BME280;74563;52.206;14.630;2024-01-10T02:50:50;103272.13;;;-8.13;65.55
84374;BME280;74563;52.206;14.630;2024-01-10T02:53:15;103287.22;;;-8.44;68.59
84374;BME280;74563;52.206;14.630;2024-01-10T02:55:40;103282.72;;;-7.94;65.26
84374;BME280;74563;52.206;14.630;2024-01-10T02:58:06;103263.06;;;-6.99;61.50
84374;BME280;74563;52.206;14.630;2024-01-10T03:00:32;103263.44;;;-6.43;60.63
84374;BME280;74563;52.206;14.630;2024-01-10T03:02:57;103272.84;;;-6.55;59.24
84374;BME280;74563;52.206;14.630;2024-01-10T03:05:22;103272.13;;;-8.13;65.29
84374;BME280;74563;52.206;14.630;2024-01-10T03:07:47;103291.63;;;-8.37;67.32
84374;BME280;74563;52.206;14.630;2024-01-10T03:10:13;103286.41;;;-7.76;65.12
84374;BME280;74563;52.206;14.630;2024-01-10T03:12:38;103283.31;;;-6.43;60.41
84374;BME280;74563;52.206;14.630;2024-01-10T03:15:05;103262.00;;;-5.76;56.50
84374;BME280;74563;52.206;14.630;2024-01-10T03:17:31;103259.44;;;-5.73;56.44
84374;BME280;74563;52.206;14.630;2024-01-10T03:19:59;103257.78;;;-5.40;55.34
84374;BME280;74563;52.206;14.630;2024-01-10T03:22:24;103251.78;;;-5.06;55.03
84374;BME280;74563;52.206;14.630;2024-01-10T03:24:49;103266.16;;;-6.25;57.28
84374;BME280;74563;52.206;14.630;2024-01-10T03:27:14;103280.53;;;-7.58;64.26
84374;BME280;74563;52.206;14.630;2024-01-10T03:29:39;103272.13;;;-6.35;60.84
84374;BME280;74563;52.206;14.630;2024-01-10T03:32:05;103272.84;;;-6.58;60.69
84374;BME280;74563;52.206;14.630;2024-01-10T03:34:31;103261.84;;;-6.18;60.66
84374;BME280;74563;52.206;14.630;2024-01-10T03:36:56;103267.47;;;-6.84;63.46
84374;BME280;74563;52.206;14.630;2024-01-10T03:39:22;103257.06;;;-6.90;63.74
84374;BME280;74563;52.206;14.630;2024-01-10T03:41:47;103252.22;;;-7.47;65.05
84374;BME280;74563;52.206;14.630;2024-01-10T03:44:12;103245.44;;;-7.38;64.17
84374;BME280;74563;52.206;14.630;2024-01-10T03:46:37;103264.69;;;-7.90;67.80
84374;BME280;74563;52.206;14.630;2024-01-10T03:49:03;103249.06;;;-7.99;69.12
84374;BME280;74563;52.206;14.630;2024-01-10T03:51:28;103254.94;;;-8.12;70.25
84374;BME280;74563;52.206;14.630;2024-01-10T03:53:54;103248.63;;;-7.62;66.77
84374;BME280;74563;52.206;14.630;2024-01-10T03:56:20;103252.19;;;-7.50;66.62
84374;BME280;74563;52.206;14.630;2024-01-10T03:58:45;103240.25;;;-8.16;68.44
84374;BME280;74563;52.206;14.630;2024-01-10T04:01:13;103247.19;;;-8.12;69.10
84374;BME280;74563;52.206;14.630;2024-01-10T04:03:39;103244.47;;;-8.23;70.03
84374;BME280;74563;52.206;14.630;2024-01-10T04:06:07;103238.25;;;-7.66;66.73
84374;BME280;74563;52.206;14.630;2024-01-10T04:08:32;103235.75;;;-8.34;69.74
84374;BME280;74563;52.206;14.630;2024-01-10T04:10:58;103234.88;;;-7.62;65.93
84374;BME280;74563;52.206;14.630;2024-01-10T04:13:23;103233.13;;;-7.62;65.76
84374;BME280;74563;52.206;14.630;2024-01-10T04:15:48;103240.41;;;-7.23;64.74
84374;BME280;74563;52.206;14.630;2024-01-10T04:18:14;103229.19;;;-8.07;65.76
84374;BME280;74563;52.206;14.630;2024-01-10T04:20:39;103220.72;;;-8.62;70.59
84374;BME280;74563;52.206;14.630;2024-01-10T04:23:04;103225.84;;;-8.67;70.14
84374;BME280;74563;52.206;14.630;2024-01-10T04:25:30;103212.88;;;-8.02;67.69
84374;BME280;74563;52.206;14.630;2024-01-10T04:27:55;103208.34;;;-7.44;64.51
84374;BME280;74563;52.206;14.630;2024-01-10T04:30:22;103216.47;;;-7.88;65.65
84374;BME280;74563;52.206;14.630;2024-01-10T04:32:47;103215.09;;;-8.34;68.02
84374;BME280;74563;52.206;14.630;2024-01-10T04:35:12;103237.25;;;-8.49;69.18
84374;BME280;74563;52.206;14.630;2024-01-10T04:37:37;103227.06;;;-8.97;70.89
84374;BME280;74563;52.206;14.630;2024-01-10T04:40:03;103216.75;;;-8.37;67.64
84374;BME280;74563;52.206;14.630;2024-01-10T04:42:30;103245.88;;;-8.47;68.39
84374;BME280;74563;52.206;14.630;2024-01-10T04:44:55;103235.69;;;-6.68;62.45
84374;BME280;74563;52.206;14.630;2024-01-10T04:47:20;103238.25;;;-6.70;60.72
84374;BME280;74563;52.206;14.630;2024-01-10T04:49:46;103233.47;;;-5.97;58.25
84374;BME280;74563;52.206;14.630;2024-01-10T04:52:11;103232.66;;;-7.20;60.64
84374;BME280;74563;52.206;14.630;2024-01-10T04:54:37;103246.66;;;-7.87;65.64
84374;BME280;74563;52.206;14.630;2024-01-10T04:57:03;103237.38;;;-7.68;64.84
84374;BME280;74563;52.206;14.630;2024-01-10T04:59:28;103245.28;;;-6.50;59.53
84374;BME280;74563;52.206;14.630;2024-01-10T05:01:53;103237.59;;;-7.47;61.99
84374;BME280;74563;52.206;14.630;2024-01-10T05:04:18;103251.50;;;-7.37;63.15
84374;BME280;74563;52.206;14.630;2024-01-10T05:06:44;103248.00;;;-6.28;59.56
84374;BME280;74563;52.206;14.630;2024-01-10T05:09:09;103245.06;;;-6.81;61.46
84374;BME280;74563;52.206;14.630;2024-01-10T05:11:35;103239.22;;;-6.49;58.86
84374;BME280;74563;52.206;14.630;2024-01-10T05:14:01;103244.31;;;-6.66;61.66
84374;BME280;74563;52.206;14.630;2024-01-10T05:16:26;103243.44;;;-6.71;61.25
84374;BME280;74563;52.206;14.630;2024-01-10T05:18:51;103250.16;;;-6.93;62.26
84374;BME280;74563;52.206;14.630;2024-01-10T05:21:17;103248.63;;;-7.62;66.67
84374;BME280;74563;52.206;14.630;2024-01-10T05:23:42;103259.81;;;-8.35;69.04
84374;BME280;74563;52.206;14.630;2024-01-10T05:26:08;103241.66;;;-8.42;68.70
84374;BME280;74563;52.206;14.630;2024-01-10T05:28:33;103248.56;;;-8.38;68.36
84374;BME280;74563;52.206;14.630;2024-01-10T05:30:58;103258.69;;;-8.53;69.26
84374;BME280;74563;52.206;14.630;2024-01-10T05:33:24;103247.47;;;-8.57;68.40
84374;BME280;74563;52.206;14.630;2024-01-10T05:35:49;103256.38;;;-8.35;69.49
84374;BME280;74563;52.206;14.630;2024-01-10T05:38:14;103236.59;;;-8.33;68.87
84374;BME280;74563;52.206;14.630;2024-01-10T05:40:40;103258.16;;;-8.30;69.80
84374;BME280;74563;52.206;14.630;2024-01-10T05:43:06;103252.28;;;-8.17;67.94
84374;BME280;74563;52.206;14.630;2024-01-10T05:45:32;103254.78;;;-8.23;67.37
84374;BME280;74563;52.206;14.630;2024-01-10T05:47:57;103233.19;;;-6.51;61.44
84374;BME280;74563;52.206;14.630;2024-01-10T05:50:23;103241.69;;;-7.67;64.50
84374;BME280;74563;52.206;14.630;2024-01-10T05:52:48;103226.31;;;-8.27;67.59
84374;BME280;74563;52.206;14.630;2024-01-10T05:55:13;103232.94;;;-8.50;69.14
84374;BME280;74563;52.206;14.630;2024-01-10T05:57:39;103218.50;;;-8.35;68.56
84374;BME280;74563;52.206;14.630;2024-01-10T06:00:05;103223.13;;;-7.28;63.21
84374;BME280;74563;52.206;14.630;2024-01-10T06:02:38;103222.78;;;-6.62;58.57
84374;BME280;74563;52.206;14.630;2024-01-10T06:05:11;103217.75;;;-8.89;69.46
84374;BME280;74563;52.206;14.630;2024-01-10T06:07:40;103232.50;;;-8.81;70.42
84374;BME280;74563;52.206;14.630;2024-01-10T06:10:08;103216.09;;;-8.84;69.83
84374;BME280;74563;52.206;14.630;2024-01-10T06:12:35;103226.38;;;-8.86;69.57
84374;BME280;74563;52.206;14.630;2024-01-10T06:15:00;103224.66;;;-8.87;70.47
84374;BME280;74563;52.206;14.630;2024-01-10T06:17:25;103226.59;;;-8.74;70.40
84374;BME280;74563;52.206;14.630;2024-01-10T06:19:51;103207.22;;;-9.01;70.34
84374;BME280;74563;52.206;14.630;2024-01-10T06:22:16;103208.09;;;-9.01;70.36
84374;BME280;74563;52.206;14.630;2024-01-10T06:24:42;103209.75;;;-9.04;71.34
84374;BME280;74563;52.206;14.630;2024-01-10T06:27:08;103215.38;;;-8.76;69.64
84374;BME280;74563;52.206;14.630;2024-01-10T06:29:33;103210.72;;;-8.39;68.22
84374;BME280;74563;52.206;14.630;2024-01-10T06:31:59;103209.09;;;-8.31;67.85
84374;BME280;74563;52.206;14.630;2024-01-10T06:34:26;103211.72;;;-8.27;67.46
84374;BME280;74563;52.206;14.630;2024-01-10T06:36:51;103203.06;;;-8.33;67.42
84374;BME280;74563;52.206;14.630;2024-01-10T06:39:16;103207.72;;;-8.02;65.93
84374;BME280;74563;52.206;14.630;2024-01-10T06:41:44;103209.56;;;-6.98;60.64
84374;BME280;74563;52.206;14.630;2024-01-10T06:44:10;103200.91;;;-7.97;63.60
84374;BME280;74563;52.206;14.630;2024-01-10T06:46:35;103224.84;;;-8.08;64.97
84374;BME280;74563;52.206;14.630;2024-01-10T06:49:01;103221.78;;;-6.79;61.26
84374;BME280;74563;52.206;14.630;2024-01-10T06:51:26;103220.94;;;-7.76;61.84
84374;BME280;74563;52.206;14.630;2024-01-10T06:53:52;103221.84;;;-7.73;63.51
84374;BME280;74563;52.206;14.630;2024-01-10T06:56:17;103230.09;;;-8.04;63.46
84374;BME280;74563;52.206;14.630;2024-01-10T06:58:42;103216.94;;;-7.45;61.80
84374;BME280;74563;52.206;14.630;2024-01-10T07:01:13;103213.63;;;-8.12;63.71
84374;BME280;74563;52.206;14.630;2024-01-10T07:03:39;103232.84;;;-8.56;65.66
84374;BME280;74563;52.206;14.630;2024-01-10T07:06:05;103228.84;;;-8.36;65.20
84374;BME280;74563;52.206;14.630;2024-01-10T07:08:30;103219.31;;;-8.40;65.70
84374;BME280;74563;52.206;14.630;2024-01-10T07:10:56;103190.34;;;-8.81;67.36
84374;BME280;74563;52.206;14.630;2024-01-10T07:13:22;103218.28;;;-9.10;68.33
84374;BME280;74563;52.206;14.630;2024-01-10T07:15:48;103217.03;;;-8.81;68.27
84374;BME280;74563;52.206;14.630;2024-01-10T07:18:15;103215.84;;;-8.42;67.00
84374;BME280;74563;52.206;14.630;2024-01-10T07:20:41;103212.38;;;-8.44;66.63
84374;BME280;74563;52.206;14.630;2024-01-10T07:23:06;103219.19;;;-8.49;67.35
84374;BME280;74563;52.206;14.630;2024-01-10T07:25:31;103217.16;;;-8.72;67.78
84374;BME280;74563;52.206;14.630;2024-01-10T07:27:58;103228.34;;;-8.70;68.63
84374;BME280;74563;52.206;14.630;2024-01-10T07:30:24;103219.16;;;-7.80;64.99
84374;BME280;74563;52.206;14.630;2024-01-10T07:32:49;103218.91;;;-7.17;62.82
84374;BME280;74563;52.206;14.630;2024-01-10T07:35:14;103233.47;;;-5.95;58.48
84374;BME280;74563;52.206;14.630;2024-01-10T07:37:41;103229.56;;;-6.79;59.75
84374;BME280;74563;52.206;14.630;2024-01-10T07:40:07;103232.63;;;-7.27;62.18
84374;BME280;74563;52.206;14.630;2024-01-10T07:42:36;103225.75;;;-7.22;63.34
84374;BME280;74563;52.206;14.630;2024-01-10T07:45:02;103234.94;;;-6.50;61.65
84374;BME280;74563;52.206;14.630;2024-01-10T07:47:32;103223.50;;;-6.81;61.77
84374;BME280;74563;52.206;14.630;2024-01-10T07:49:59;103229.81;;;-8.28;67.13
84374;BME280;74563;52.206;14.630;2024-01-10T07:52:24;103230.50;;;-7.65;66.33
84374;BME280;74563;52.206;14.630;2024-01-10T07:54:49;103232.66;;;-7.23;64.62
84374;BME280;74563;52.206;14.630;2024-01-10T07:57:15;103216.41;;;-7.08;63.73
84374;BME280;74563;52.206;14.630;2024-01-10T07:59:43;103219.91;;;-7.03;63.03
84374;BME280;74563;52.206;14.630;2024-01-10T08:02:08;103213.44;;;-7.47;64.74
84374;BME280;74563;52.206;14.630;2024-01-10T08:04:35;103204.19;;;-7.26;65.09
84374;BME280;74563;52.206;14.630;2024-01-10T08:07:00;103207.81;;;-7.04;64.32
84374;BME280;74563;52.206;14.630;2024-01-10T08:09:26;103216.75;;;-7.64;67.47
84374;BME280;74563;52.206;14.630;2024-01-10T08:11:51;103223.53;;;-6.78;63.81
84374;BME280;74563;52.206;14.630;2024-01-10T08:14:16;103222.50;;;-7.89;69.20
84374;BME280;74563;52.206;14.630;2024-01-10T08:16:42;103211.56;;;-7.64;69.15
84374;BME280;74563;52.206;14.630;2024-01-10T08:19:08;103206.97;;;-7.03;67.68
84374;BME280;74563;52.206;14.630;2024-01-10T08:21:33;103218.28;;;-6.84;66.17
84374;BME280;74563;52.206;14.630;2024-01-10T08:23:59;103210.56;;;-6.80;68.31
84374;BME280;74563;52.206;14.630;2024-01-10T08:26:26;103221.16;;;-6.46;66.84
84374;BME280;74563;52.206;14.630;2024-01-10T08:28:52;103214.47;;;-5.96;64.43
84374;BME280;74563;52.206;14.630;2024-01-10T08:31:17;103217.63;;;-6.57;66.32
84374;BME280;74563;52.206;14.630;2024-01-10T08:33:42;103210.56;;;-6.80;68.59
84374;BME280;74563;52.206;14.630;2024-01-10T08:36:07;103223.34;;;-7.04;69.96
84374;BME280;74563;52.206;14.630;2024-01-10T08:38:35;103218.84;;;-7.23;73.06
84374;BME280;74563;52.206;14.630;2024-01-10T08:41:01;103221.00;;;-6.69;72.39
84374;BME280;74563;52.206;14.630;2024-01-10T08:43:26;103225.47;;;-6.47;71.88
84374;BME280;74563;52.206;14.630;2024-01-10T08:45:51;103226.13;;;-6.77;74.21
84374;BME280;74563;52.206;14.630;2024-01-10T08:48:16;103214.53;;;-5.70;71.05
84374;BME280;74563;52.206;14.630;2024-01-10T08:50:42;103215.41;;;-5.67;73.22
84374;BME280;74563;52.206;14.630;2024-01-10T08:53:08;103214.56;;;-5.57;72.70
84374;BME280;74563;52.206;14.630;2024-01-10T08:55:33;103222.22;;;-6.05;73.71
84374;BME280;74563;52.206;14.630;2024-01-10T08:57:59;103231.88;;;-4.80;70.69
84374;BME280;74563;52.206;14.630;2024-01-10T09:00:24;103222.38;;;-4.99;69.73
84374;BME280;74563;52.206;14.630;2024-01-10T09:02:50;103226.53;;;-6.02;73.81
84374;BME280;74563;52.206;14.630;2024-01-10T09:05:15;103216.31;;;-5.16;69.84
84374;BME280;74563;52.206;14.630;2024-01-10T09:07:40;103215.34;;;-4.39;67.39
84374;BME280;74563;52.206;14.630;2024-01-10T09:10:07;103230.00;;;-5.99;71.95
84374;BME280;74563;52.206;14.630;2024-01-10T09:12:33;103235.34;;;-5.05;71.94
84374;BME280;74563;52.206;14.630;2024-01-10T09:14:58;103234.47;;;-4.87;70.35
84374;BME280;74563;52.206;14.630;2024-01-10T09:17:23;103233.59;;;-4.64;70.30
84374;BME280;74563;52.206;14.630;2024-01-10T09:19:48;103231.91;;;-4.93;71.91
84374;BME280;74563;52.206;14.630;2024-01-10T09:22:14;103227.13;;;-3.53;67.24
84374;BME280;74563;52.206;14.630;2024-01-10T09:24:39;103222.97;;;-3.88;67.44
84374;BME280;74563;52.206;14.630;2024-01-10T09:27:04;103227.53;;;-4.72;70.39
84374;BME280;74563;52.206;14.630;2024-01-10T09:29:30;103224.88;;;-4.35;70.19
84374;BME280;74563;52.206;14.630;2024-01-10T09:31:56;103230.13;;;-4.47;70.04
84374;BME280;74563;52.206;14.630;2024-01-10T09:34:22;103224.94;;;-4.96;72.20
84374;BME280;74563;52.206;14.630;2024-01-10T09:36:47;103213.94;;;-3.29;66.55
84374;BME280;74563;52.206;14.630;2024-01-10T09:39:13;103190.72;;;-3.58;68.29
84374;BME280;74563;52.206;14.630;2024-01-10T09:41:46;103216.19;;;-4.33;69.25
84374;BME280;74563;52.206;14.630;2024-01-10T09:44:12;103211.09;;;-4.63;71.13
84374;BME280;74563;52.206;14.630;2024-01-10T09:46:38;103219.28;;;-3.50;66.68
84374;BME280;74563;52.206;14.630;2024-01-10T09:49:06;103221.31;;;-4.10;68.69
84374;BME280;74563;52.206;14.630;2024-01-10T09:51:33;103222.72;;;-3.45;66.92
84374;BME280;74563;52.206;14.630;2024-01-10T09:53:58;103225.81;;;-2.13;62.32
84374;BME280;74563;52.206;14.630;2024-01-10T09:56:27;103203.31;;;-3.04;64.98
84374;BME280;74563;52.206;14.630;2024-01-10T09:58:53;103217.88;;;-2.80;63.91
84374;BME280;74563;52.206;14.630;2024-01-10T10:01:20;103210.94;;;-4.15;66.48
84374;BME280;74563;52.206;14.630;2024-01-10T10:03:48;103208.22;;;-3.90;68.15
84374;BME280;74563;52.206;14.630;2024-01-10T10:06:14;103200.06;;;-2.40;61.89
84374;BME280;74563;52.206;14.630;2024-01-10T10:08:40;103198.63;;;-2.68;63.85
84374;BME280;74563;52.206;14.630;2024-01-10T10:11:06;103205.47;;;-1.85;60.38
84374;BME280;74563;52.206;14.630;2024-01-10T10:13:32;103199.19;;;-2.40;62.14
84374;BME280;74563;52.206;14.630;2024-01-10T10:16:02;103190.72;;;-1.86;60.77
84374;BME280;74563;52.206;14.630;2024-01-10T10:18:29;103189.38;;;-0.99;59.00
84374;BME280;74563;52.206;14.630;2024-01-10T10:21:26;103191.31;;;-0.62;56.70
84374;BME280;74563;52.206;14.630;2024-01-10T10:24:00;103194.09;;;-0.71;55.25
84374;BME280;74563;52.206;14.630;2024-01-10T10:26:27;103183.47;;;-2.33;58.52
84374;BME280;74563;52.206;14.630;2024-01-10T10:28:53;103179.38;;;-3.51;63.85
84374;BME280;74563;52.206;14.630;2024-01-10T10:31:19;103178.69;;;-2.72;61.43
84374;BME280;74563;52.206;14.630;2024-01-10T10:33:46;103179.72;;;-1.49;60.15
84374;BME280;74563;52.206;14.630;2024-01-10T10:36:14;103184.84;;;-0.90;58.38
84374;BME280;74563;52.206;14.630;2024-01-10T10:38:39;103171.91;;;-0.97;60.31
84374;BME280;74563;52.206;14.630;2024-01-10T10:41:05;103180.47;;;-0.42;60.65
84374;BME280;74563;52.206;14.630;2024-01-10T10:43:36;103184.78;;;-0.87;57.67
84374;BME280;74563;52.206;14.630;2024-01-10T10:46:03;103177.44;;;-1.69;60.67
84374;BME280;74563;52.206;14.630;2024-01-10T10:48:29;103177.69;;;-0.34;56.93
84374;BME280;74563;52.206;14.630;2024-01-10T10:51:05;103164.34;;;0.19;54.72
84374;BME280;74563;52.206;14.630;2024-01-10T10:53:34;103177.34;;;-0.61;57.54
84374;BME280;74563;52.206;14.630;2024-01-10T10:56:02;103183.78;;;-0.34;57.27
84374;BME280;74563;52.206;14.630;2024-01-10T10:58:30;103161.50;;;0.28;54.17
84374;BME280;74563;52.206;14.630;2024-01-10T11:00:57;103176.19;;;-0.03;55.73
84374;BME280;74563;52.206;14.630;2024-01-10T11:03:23;103164.94;;;-0.49;57.13
84374;BME280;74563;52.206;14.630;2024-01-10T11:05:50;103169.78;;;-0.31;57.10
84374;BME280;74563;52.206;14.630;2024-01-10T11:08:18;103174.16;;;-0.76;58.03
84374;BME280;74563;52.206;14.630;2024-01-10T11:10:45;103162.19;;;-0.89;58.05
84374;BME280;74563;52.206;14.630;2024-01-10T11:15:59;103167.22;;;0.09;55.02
84374;BME280;74563;52.206;14.630;2024-01-10T11:24:12;103161.88;;;0.13;55.05
84374;BME280;74563;52.206;14.630;2024-01-10T11:26:38;103150.25;;;-0.57;56.39
84374;BME280;74563;52.206;14.630;2024-01-10T11:29:04;103151.88;;;-0.08;54.59
84374;BME280;74563;52.206;14.630;2024-01-10T11:31:31;103142.09;;;-0.41;56.00
84374;BME280;74563;52.206;14.630;2024-01-10T11:33:58;103134.22;;;0.02;53.93
84374;BME280;74563;52.206;14.630;2024-01-10T11:36:25;103143.25;;;0.27;53.63
84374;BME280;74563;52.206;14.630;2024-01-10T11:41:30;103143.81;;;1.09;51.20
84374;BME280;74563;52.206;14.630;2024-01-10T11:46:33;103127.44;;;-0.07;52.20
84374;BME280;74563;52.206;14.630;2024-01-10T11:48:59;103127.94;;;1.45;49.40
84374;BME280;74563;52.206;14.630;2024-01-10T11:51:25;103127.09;;;1.45;48.47
84374;BME280;74563;52.206;14.630;2024-01-10T11:53:50;103132.19;;;0.86;50.20
84374;BME280;74563;52.206;14.630;2024-01-10T11:56:17;103139.47;;;0.74;51.41
84374;BME280;74563;52.206;14.630;2024-01-10T11:59:03;103115.56;;;2.09;47.50
84374;BME280;74563;52.206;14.630;2024-01-10T12:01:36;103105.00;;;2.11;47.16
84374;BME280;74563;52.206;14.630;2024-01-10T12:04:03;103125.53;;;0.36;50.65
84374;BME280;74563;52.206;14.630;2024-01-10T12:06:29;103113.75;;;1.22;49.24
84374;BME280;74563;52.206;14.630;2024-01-10T12:08:54;103116.00;;;1.35;50.12
84374;BME280;74563;52.206;14.630;2024-01-10T12:11:19;103111.22;;;0.85;50.85
84374;BME280;74563;52.206;14.630;2024-01-10T12:13:45;103108.34;;;2.16;48.45
84374;BME280;74563;52.206;14.630;2024-01-10T12:16:12;103096.63;;;1.98;48.77
84374;BME280;74563;52.206;14.630;2024-01-10T12:18:37;103104.28;;;1.16;50.62
84374;BME280;74563;52.206;14.630;2024-01-10T12:21:03;103111.59;;;1.67;49.96
84374;BME280;74563;52.206;14.630;2024-01-10T12:23:29;103095.22;;;1.28;49.76
84374;BME280;74563;52.206;14.630;2024-01-10T12:26:01;103107.78;;;2.06;48.00
84374;BME280;74563;52.206;14.630;2024-01-10T12:28:27;103092.84;;;2.61;47.31
84374;BME280;74563;52.206;14.630;2024-01-10T12:30:52;103080.69;;;3.08;45.71
84374;BME280;74563;52.206;14.630;2024-01-10T12:33:17;103067.94;;;1.92;48.68
84374;BME280;74563;52.206;14.630;2024-01-10T12:36:02;103092.22;;;1.71;50.11
84374;BME280;74563;52.206;14.630;2024-01-10T12:38:28;103071.84;;;1.79;48.58
84374;BME280;74563;52.206;14.630;2024-01-10T12:40:53;103067.78;;;1.39;48.71
84374;BME280;74563;52.206;14.630;2024-01-10T12:43:19;103045.88;;;0.79;50.03
84374;BME280;74563;52.206;14.630;2024-01-10T12:45:45;103065.88;;;1.74;48.27
84374;BME280;74563;52.206;14.630;2024-01-10T12:48:13;103070.75;;;2.14;45.47